Weather at Essex County Airport

Public forecast

Using degrees Fahrenheit for public forecast. Weather courtesy of forecast.io.

Current aviation weather report (METAR) for Essex County Airport

Report is more than 6 hours old.

2022/11/14 14:53 (retrieved 2 years ago)

KCDW 141453Z 31012KT 280V350 10SM CLR 05/M06 A3034 RMK AO2 SLP280 T00501061 51020

Closest aviation forecast (TAF) to Essex County Airport

Forecast is more than 12 hours old.

Closest forecast is Teterboro Airport, 10.1 nm (18.8 km) E.

2023/02/22 18:24 (retrieved 1 year ago)

TAF KTEB 221722Z 2218/2324 VRB04KT P6SM OVC050 FM221900 18005KT 6SM -RA BR SCT025 OVC050 TEMPO 2219/2222 -RASNPL OVC015 FM222200 10005KT 5SM -RA OVC010 FM230000 09007KT 5SM -RA BR OVC008 FM230500 06006KT 3SM -RADZ BR OVC006 FM231200 36005KT P6SM OVC012